Time;durP1;ratioP1;P1;durP2;ratioP2;P2;SDS_P1;SDS_P2;PMS_P1;PMS_P2;Temp;Humidity;BMP_temperature;BMP_pressure;BME280_temperature;BME280_humidity;BME280_pressure;Samples;Min_cycle;Max_cycle;Signal;HPM_P1;HPM_P2
2022/10/07 00:01:14;;;;;;;10.88;2.85;;;;;;;;;;5059559;28;20056;-67
2022/10/07 00:03:40;;;;;;;7.88;2.60;;;;;;;;;;5059098;28;20052;-67
2022/10/07 00:06:09;;;;;;;7.30;3.22;;;;;;;;;;5060614;28;20192;-68
2022/10/07 00:08:36;;;;;;;12.98;3.03;;;;;;;;;;5051957;28;20466;-67
2022/10/07 00:11:04;;;;;;;11.32;3.22;;;;;;;;;;5057689;28;20052;-67
2022/10/07 00:13:31;;;;;;;6.88;2.78;;;;;;;;;;5060060;28;20057;-67
2022/10/07 00:16:05;;;;;;;15.25;3.33;;;;;;;;;;5060445;28;20057;-68
2022/10/07 00:18:32;;;;;;;7.75;2.47;;;;;;;;;;5045819;28;20568;-67
2022/10/07 00:21:05;;;;;;;8.20;2.78;;;;;;;;;;5063530;28;20151;-67
2022/10/07 00:23:32;;;;;;;13.80;3.42;;;;;;;;;;5063648;28;20061;-68
2022/10/07 00:26:00;;;;;;;10.63;4.13;;;;;;;;;;5063363;28;20102;-67
2022/10/07 00:28:27;;;;;;;9.70;3.08;;;;;;;;;;5064159;28;20057;-67
2022/10/07 00:30:57;;;;;;;7.60;3.75;;;;;;;;;;5064804;28;20083;-68
2022/10/07 00:33:23;;;;;;;11.77;3.40;;;;;;;;;;5064056;28;20057;-67
2022/10/07 00:35:50;;;;;;;7.90;2.90;;;;;;;;;;5078465;28;20056;-68
2022/10/07 00:38:16;;;;;;;11.32;2.88;;;;;;;;;;5065190;28;20053;-67
2022/10/07 00:40:42;;;;;;;10.57;2.92;;;;;;;;;;5059804;28;20049;-67
2022/10/07 00:43:26;;;;;;;7.28;2.63;;;;;;;;;;5063023;28;20416;-67
2022/10/07 00:45:53;;;;;;;9.30;2.90;;;;;;;;;;5064051;28;20514;-67
2022/10/07 00:48:22;;;;;;;10.55;3.53;;;;;;;;;;5063672;28;20574;-67
2022/10/07 00:50:51;;;;;;;6.40;3.22;;;;;;;;;;5062915;28;20053;-67
2022/10/07 00:53:17;;;;;;;18.25;5.43;;;;;;;;;;5064302;28;20049;-67
2022/10/07 00:55:43;;;;;;;8.70;3.53;;;;;;;;;;5063024;28;20056;-67
2022/10/07 00:58:10;;;;;;;10.43;2.80;;;;;;;;;;5063342;28;20053;-67
2022/10/07 01:00:38;;;;;;;13.93;4.60;;;;;;;;;;5061513;28;20515;-67
2022/10/07 01:03:04;;;;;;;7.75;2.90;;;;;;;;;;5060644;28;20052;-67
2022/10/07 01:05:30;;;;;;;16.38;3.78;;;;;;;;;;5061041;28;20045;-67
2022/10/07 01:07:57;;;;;;;13.15;3.40;;;;;;;;;;5064718;28;20052;-69
2022/10/07 01:10:28;;;;;;;11.10;3.72;;;;;;;;;;5062801;28;20052;-68
2022/10/07 01:12:57;;;;;;;13.77;4.03;;;;;;;;;;5061884;28;20053;-67
2022/10/07 01:15:30;;;;;;;15.10;3.88;;;;;;;;;;5063717;28;20088;-68
2022/10/07 01:18:05;;;;;;;12.55;3.55;;;;;;;;;;5061312;28;20049;-67
2022/10/07 01:20:34;;;;;;;13.68;3.42;;;;;;;;;;5061835;28;20061;-67
2022/10/07 01:23:06;;;;;;;10.65;2.65;;;;;;;;;;5062702;28;20053;-67
2022/10/07 01:25:40;;;;;;;17.52;4.05;;;;;;;;;;5063775;28;20056;-67
2022/10/07 01:28:08;;;;;;;11.05;3.42;;;;;;;;;;5062495;28;20045;-67
2022/10/07 01:30:37;;;;;;;13.90;3.65;;;;;;;;;;5059965;28;20057;-67
2022/10/07 01:33:05;;;;;;;14.13;2.95;;;;;;;;;;5062256;28;20057;-68
2022/10/07 01:35:34;;;;;;;8.52;3.50;;;;;;;;;;5063362;28;20057;-67
2022/10/07 01:38:10;;;;;;;10.80;3.03;;;;;;;;;;5056827;28;20052;-66
2022/10/07 01:40:47;;;;;;;12.15;3.15;;;;;;;;;;5054354;28;20052;-67
2022/10/07 01:43:14;;;;;;;12.00;3.03;;;;;;;;;;5056599;28;20067;-67
2022/10/07 01:45:40;;;;;;;8.43;3.10;;;;;;;;;;5064035;28;20135;-66
2022/10/07 01:48:07;;;;;;;12.05;3.40;;;;;;;;;;5061357;28;20057;-67
2022/10/07 01:50:33;;;;;;;9.45;3.35;;;;;;;;;;5063036;28;20049;-67
2022/10/07 01:53:05;;;;;;;14.60;4.25;;;;;;;;;;5062649;28;20060;-67
2022/10/07 01:55:50;;;;;;;10.02;3.28;;;;;;;;;;5063408;28;20508;-67
2022/10/07 01:58:35;;;;;;;10.05;3.47;;;;;;;;;;5060671;28;20053;-67
2022/10/07 02:01:02;;;;;;;13.55;4.30;;;;;;;;;;5060865;28;20048;-67
2022/10/07 02:03:37;;;;;;;15.55;3.63;;;;;;;;;;5063717;28;20551;-67
2022/10/07 02:06:08;;;;;;;20.30;4.15;;;;;;;;;;5061898;28;20060;-67
2022/10/07 02:08:40;;;;;;;20.83;3.97;;;;;;;;;;5061452;28;20056;-66
2022/10/07 02:11:13;;;;;;;10.40;2.92;;;;;;;;;;5060139;28;20060;-67
2022/10/07 02:13:42;;;;;;;15.63;4.10;;;;;;;;;;5061346;28;20060;-66
2022/10/07 02:16:21;;;;;;;11.32;3.33;;;;;;;;;;5052001;28;20053;-67
2022/10/07 02:18:51;;;;;;;9.18;3.20;;;;;;;;;;5062525;28;20568;-67
2022/10/07 02:21:21;;;;;;;8.48;3.58;;;;;;;;;;5061434;28;20103;-67
2022/10/07 02:23:48;;;;;;;14.82;3.88;;;;;;;;;;5063593;28;20052;-67
2022/10/07 02:26:17;;;;;;;12.25;3.63;;;;;;;;;;5058725;28;20052;-67
2022/10/07 02:28:44;;;;;;;10.98;3.90;;;;;;;;;;5062811;28;20045;-67
2022/10/07 02:31:12;;;;;;;14.23;4.18;;;;;;;;;;5060207;28;20080;-67
2022/10/07 02:33:40;;;;;;;13.75;5.18;;;;;;;;;;5060817;28;20080;-66
2022/10/07 02:36:11;;;;;;;7.18;3.15;;;;;;;;;;5043976;28;20052;-67
2022/10/07 02:38:38;;;;;;;8.15;3.35;;;;;;;;;;5062813;28;20489;-67
2022/10/07 02:41:30;;;;;;;10.30;4.25;;;;;;;;;;5058395;28;20499;-66
2022/10/07 02:44:07;;;;;;;8.77;4.00;;;;;;;;;;5024310;28;20249;-67
2022/10/07 02:46:38;;;;;;;10.38;4.00;;;;;;;;;;5061542;28;20103;-67
2022/10/07 02:49:06;;;;;;;16.42;4.65;;;;;;;;;;5060046;28;20064;-67
2022/10/07 02:51:36;;;;;;;10.65;4.32;;;;;;;;;;5062056;28;20068;-67
2022/10/07 02:54:03;;;;;;;14.02;4.30;;;;;;;;;;5060613;28;20052;-67
2022/10/07 02:56:31;;;;;;;17.50;5.00;;;;;;;;;;5063604;28;20052;-66
2022/10/07 02:59:01;;;;;;;10.90;4.32;;;;;;;;;;5052536;28;20503;-66
2022/10/07 03:01:29;;;;;;;17.02;5.28;;;;;;;;;;5059666;28;20057;-67
2022/10/07 03:03:56;;;;;;;15.85;4.25;;;;;;;;;;5062248;28;20905;-67
2022/10/07 03:06:23;;;;;;;10.80;4.30;;;;;;;;;;5059831;28;20072;-67
2022/10/07 03:08:50;;;;;;;11.00;3.58;;;;;;;;;;5062335;28;20063;-66
2022/10/07 03:11:16;;;;;;;11.07;3.80;;;;;;;;;;5060345;28;20056;-66
2022/10/07 03:13:44;;;;;;;15.38;4.22;;;;;;;;;;5059992;28;20076;-67
2022/10/07 03:16:10;;;;;;;10.57;3.75;;;;;;;;;;5061061;28;20061;-67
2022/10/07 03:18:36;;;;;;;16.30;5.63;;;;;;;;;;5062700;28;20095;-67
2022/10/07 03:21:03;;;;;;;16.20;4.22;;;;;;;;;;5055377;28;20738;-65
2022/10/07 03:23:29;;;;;;;18.13;4.25;;;;;;;;;;5059751;28;20057;-66
2022/10/07 03:25:57;;;;;;;15.60;4.28;;;;;;;;;;5060857;28;20056;-67
2022/10/07 03:28:24;;;;;;;8.70;4.45;;;;;;;;;;5057207;28;20060;-66
2022/10/07 03:30:50;;;;;;;15.25;4.00;;;;;;;;;;5060806;28;20041;-66
2022/10/07 03:33:18;;;;;;;10.40;4.47;;;;;;;;;;5060514;28;20053;-67
2022/10/07 03:35:44;;;;;;;12.85;5.20;;;;;;;;;;5060564;28;20107;-66
2022/10/07 03:38:11;;;;;;;16.10;5.55;;;;;;;;;;5061548;28;20494;-68
2022/10/07 03:40:37;;;;;;;17.73;5.43;;;;;;;;;;5059665;28;20049;-67
2022/10/07 03:43:04;;;;;;;14.43;5.88;;;;;;;;;;5058433;28;20049;-67
2022/10/07 03:45:30;;;;;;;7.88;3.75;;;;;;;;;;5061351;28;20049;-68
2022/10/07 03:47:57;;;;;;;10.57;3.90;;;;;;;;;;5060116;28;20455;-68
2022/10/07 03:50:24;;;;;;;12.23;4.90;;;;;;;;;;5058850;28;20060;-68
2022/10/07 03:52:50;;;;;;;18.15;4.25;;;;;;;;;;5066012;28;20052;-68
2022/10/07 03:55:18;;;;;;;16.48;5.72;;;;;;;;;;5072747;28;20080;-67
2022/10/07 03:57:54;;;;;;;14.60;4.20;;;;;;;;;;5063385;28;20503;-67
2022/10/07 04:00:25;;;;;;;9.95;4.30;;;;;;;;;;5063636;28;20053;-67
2022/10/07 04:02:51;;;;;;;10.13;4.03;;;;;;;;;;5063593;28;20557;-68
2022/10/07 04:05:18;;;;;;;14.45;3.85;;;;;;;;;;5063597;28;20140;-67
2022/10/07 04:07:46;;;;;;;13.93;4.07;;;;;;;;;;5064842;28;20156;-67
2022/10/07 04:10:14;;;;;;;14.43;5.25;;;;;;;;;;5062161;28;20053;-66
2022/10/07 04:12:40;;;;;;;11.45;4.18;;;;;;;;;;5056734;28;20096;-67
2022/10/07 04:15:07;;;;;;;13.70;4.20;;;;;;;;;;5064383;28;20048;-66
2022/10/07 04:17:33;;;;;;;13.75;4.97;;;;;;;;;;5063530;28;20049;-67
2022/10/07 04:19:59;;;;;;;13.18;4.05;;;;;;;;;;5061424;28;20534;-67
2022/10/07 04:22:25;;;;;;;13.95;4.55;;;;;;;;;;5065841;28;20048;-67
2022/10/07 04:27:38;;;;;;;12.18;4.25;;;;;;;;;;5057320;28;20053;-67
2022/10/07 04:30:17;;;;;;;8.85;3.63;;;;;;;;;;5059188;28;20059;-67
2022/10/07 04:32:43;;;;;;;10.10;3.53;;;;;;;;;;5063365;28;20067;-66
2022/10/07 04:35:09;;;;;;;9.95;4.03;;;;;;;;;;5062986;28;20079;-67
2022/10/07 04:37:36;;;;;;;17.70;4.43;;;;;;;;;;5063457;28;20060;-67
2022/10/07 04:40:02;;;;;;;15.45;3.90;;;;;;;;;;5060337;28;20055;-67
2022/10/07 04:45:14;;;;;;;15.10;3.67;;;;;;;;;;5059601;28;20131;-68
2022/10/07 04:47:40;;;;;;;12.38;3.92;;;;;;;;;;5064040;28;20055;-67
2022/10/07 04:50:07;;;;;;;16.15;4.35;;;;;;;;;;5058996;28;20092;-68
2022/10/07 04:52:33;;;;;;;15.68;4.20;;;;;;;;;;5061812;28;20049;-67
2022/10/07 04:54:59;;;;;;;11.07;4.18;;;;;;;;;;5061009;28;20057;-68
2022/10/07 04:57:26;;;;;;;15.38;4.05;;;;;;;;;;5064618;28;20077;-67
2022/10/07 04:59:52;;;;;;;9.32;3.90;;;;;;;;;;5064476;28;20057;-67
2022/10/07 05:02:18;;;;;;;13.75;4.03;;;;;;;;;;5061054;28;20565;-68
2022/10/07 05:04:45;;;;;;;14.55;4.38;;;;;;;;;;5059711;28;20045;-68
2022/10/07 05:07:11;;;;;;;12.50;4.43;;;;;;;;;;5063667;28;20092;-68
2022/10/07 05:09:37;;;;;;;12.43;4.38;;;;;;;;;;5056045;28;20053;-68
2022/10/07 05:12:05;;;;;;;10.15;3.70;;;;;;;;;;5061827;28;20046;-68
2022/10/07 05:14:32;;;;;;;13.63;3.40;;;;;;;;;;5064532;28;20052;-67
2022/10/07 05:16:58;;;;;;;13.73;3.67;;;;;;;;;;5061137;28;20060;-67
2022/10/07 05:19:25;;;;;;;9.70;3.20;;;;;;;;;;5062955;28;20054;-67
2022/10/07 05:21:51;;;;;;;16.95;4.30;;;;;;;;;;5064489;28;20950;-68
2022/10/07 05:24:17;;;;;;;11.95;3.25;;;;;;;;;;5062800;28;20056;-68
2022/10/07 05:26:43;;;;;;;19.60;4.47;;;;;;;;;;5060409;28;20053;-66
2022/10/07 05:29:10;;;;;;;19.00;4.95;;;;;;;;;;5056379;28;20056;-68
2022/10/07 05:31:36;;;;;;;15.65;3.42;;;;;;;;;;5061776;28;20057;-68
2022/10/07 05:34:02;;;;;;;20.05;4.88;;;;;;;;;;5060720;28;20409;-68
2022/10/07 05:36:29;;;;;;;13.40;2.92;;;;;;;;;;5062953;28;20053;-69
2022/10/07 05:38:58;;;;;;;12.10;3.55;;;;;;;;;;5061043;28;20051;-67
2022/10/07 05:41:26;;;;;;;11.48;3.42;;;;;;;;;;5061086;28;20454;-65
2022/10/07 05:43:53;;;;;;;9.20;3.75;;;;;;;;;;5060850;28;20057;-65
2022/10/07 05:46:20;;;;;;;26.00;3.63;;;;;;;;;;5061347;28;20586;-66
2022/10/07 05:48:47;;;;;;;10.15;3.35;;;;;;;;;;5060669;28;20057;-66
2022/10/07 05:51:14;;;;;;;11.70;3.35;;;;;;;;;;5060681;28;20791;-66
2022/10/07 05:53:41;;;;;;;12.50;4.43;;;;;;;;;;5063527;28;20053;-65
2022/10/07 05:56:08;;;;;;;11.68;3.85;;;;;;;;;;5059563;28;20822;-68
2022/10/07 05:58:35;;;;;;;11.93;4.05;;;;;;;;;;5062363;28;20049;-69
2022/10/07 06:01:03;;;;;;;12.63;3.90;;;;;;;;;;5061297;28;20655;-70
2022/10/07 06:03:36;;;;;;;13.85;4.32;;;;;;;;;;5062576;28;20107;-69
2022/10/07 06:06:02;;;;;;;13.85;3.10;;;;;;;;;;5054218;28;20082;-69
2022/10/07 06:08:28;;;;;;;16.52;3.63;;;;;;;;;;5056934;28;20095;-67
2022/10/07 06:13:46;;;;;;;10.93;4.10;;;;;;;;;;5062121;28;20053;-67
2022/10/07 06:16:13;;;;;;;13.52;2.90;;;;;;;;;;5060676;28;20049;-67
2022/10/07 06:18:39;;;;;;;13.45;3.88;;;;;;;;;;5061750;28;20044;-66
2022/10/07 06:21:05;;;;;;;9.52;3.05;;;;;;;;;;5063390;28;20049;-66
2022/10/07 06:23:32;;;;;;;15.50;4.03;;;;;;;;;;5059835;28;20056;-66
2022/10/07 06:26:00;;;;;;;11.85;3.83;;;;;;;;;;5063030;28;20047;-67
2022/10/07 06:28:31;;;;;;;15.27;4.35;;;;;;;;;;5061907;28;20060;-67
2022/10/07 06:30:57;;;;;;;9.10;3.28;;;;;;;;;;5063651;28;20107;-67
2022/10/07 06:33:24;;;;;;;11.57;2.85;;;;;;;;;;5061651;28;20055;-67
2022/10/07 06:35:53;;;;;;;12.85;3.47;;;;;;;;;;5058922;28;20060;-68
2022/10/07 06:38:20;;;;;;;11.43;2.55;;;;;;;;;;5062973;28;20048;-69
2022/10/07 06:40:59;;;;;;;12.15;3.58;;;;;;;;;;5063031;28;20103;-66
2022/10/07 06:43:26;;;;;;;8.85;2.78;;;;;;;;;;5061978;28;20049;-66
2022/10/07 06:45:57;;;;;;;12.00;2.67;;;;;;;;;;5061945;28;20094;-66
2022/10/07 06:48:24;;;;;;;12.68;3.13;;;;;;;;;;5062950;28;20069;-66
2022/10/07 06:50:51;;;;;;;9.30;2.58;;;;;;;;;;5062463;28;20510;-64
2022/10/07 06:53:17;;;;;;;12.50;3.20;;;;;;;;;;5061977;28;20079;-63
2022/10/07 06:55:44;;;;;;;19.13;3.92;;;;;;;;;;5061503;28;20056;-64
2022/10/07 06:58:11;;;;;;;16.45;3.38;;;;;;;;;;5060160;28;20053;-64
2022/10/07 07:00:37;;;;;;;10.48;3.10;;;;;;;;;;5062354;28;20138;-64
2022/10/07 07:03:04;;;;;;;16.63;3.45;;;;;;;;;;5062552;28;20049;-64
2022/10/07 07:05:33;;;;;;;12.63;2.85;;;;;;;;;;5063083;28;20052;-64
2022/10/07 07:07:59;;;;;;;12.73;3.05;;;;;;;;;;5061609;28;20102;-67
2022/10/07 07:10:26;;;;;;;10.52;2.58;;;;;;;;;;5062036;28;20071;-66
2022/10/07 07:12:53;;;;;;;11.63;3.13;;;;;;;;;;5062973;28;20056;-65
2022/10/07 07:15:20;;;;;;;8.63;2.58;;;;;;;;;;5060370;28;20103;-66
2022/10/07 07:17:46;;;;;;;8.65;3.33;;;;;;;;;;5061691;28;20099;-65
2022/10/07 07:20:14;;;;;;;13.15;3.75;;;;;;;;;;5059585;28;20144;-64
2022/10/07 07:22:40;;;;;;;12.38;3.22;;;;;;;;;;5058404;28;20558;-64
2022/10/07 07:25:08;;;;;;;11.45;3.28;;;;;;;;;;5060683;28;20049;-64
2022/10/07 07:27:35;;;;;;;12.88;3.13;;;;;;;;;;5063552;28;20188;-64
2022/10/07 07:30:02;;;;;;;8.50;2.97;;;;;;;;;;5056852;28;20049;-64
2022/10/07 07:32:31;;;;;;;13.50;2.90;;;;;;;;;;5059990;28;20057;-66
2022/10/07 07:34:59;;;;;;;13.20;3.15;;;;;;;;;;5060300;28;20049;-67
2022/10/07 07:37:28;;;;;;;10.50;2.63;;;;;;;;;;5060044;28;20508;-67
2022/10/07 07:39:55;;;;;;;10.13;2.50;;;;;;;;;;5060785;28;20044;-67
2022/10/07 07:42:22;;;;;;;11.63;2.45;;;;;;;;;;5060716;28;20784;-67
2022/10/07 07:44:48;;;;;;;15.10;2.72;;;;;;;;;;5062819;28;20053;-67
2022/10/07 07:47:15;;;;;;;20.75;3.20;;;;;;;;;;5060670;28;20132;-68
2022/10/07 07:49:42;;;;;;;9.05;3.00;;;;;;;;;;5062294;28;20060;-68
2022/10/07 07:52:08;;;;;;;9.43;2.55;;;;;;;;;;5061548;28;20507;-68
2022/10/07 07:54:36;;;;;;;11.43;2.42;;;;;;;;;;5060222;28;20049;-67
2022/10/07 07:57:02;;;;;;;11.60;3.05;;;;;;;;;;5060694;28;20545;-67
2022/10/07 07:59:31;;;;;;;12.80;2.92;;;;;;;;;;5060302;28;20052;-68
2022/10/07 08:01:57;;;;;;;14.98;3.72;;;;;;;;;;5054270;28;20053;-68
2022/10/07 08:04:24;;;;;;;12.25;2.25;;;;;;;;;;5059569;28;20056;-67
2022/10/07 08:06:51;;;;;;;12.10;2.35;;;;;;;;;;5061189;28;20057;-68
2022/10/07 08:09:17;;;;;;;11.38;1.90;;;;;;;;;;5060399;28;20055;-67
2022/10/07 08:11:44;;;;;;;14.63;3.03;;;;;;;;;;5060865;28;20081;-67
2022/10/07 08:14:11;;;;;;;6.38;2.00;;;;;;;;;;5077984;28;20080;-68
2022/10/07 08:16:37;;;;;;;9.50;2.05;;;;;;;;;;5077416;28;20076;-69
2022/10/07 08:19:04;;;;;;;7.95;2.25;;;;;;;;;;5060884;28;20881;-65
2022/10/07 08:21:33;;;;;;;10.57;2.70;;;;;;;;;;5060049;28;20045;-64
2022/10/07 08:24:01;;;;;;;7.55;2.13;;;;;;;;;;5059664;28;20053;-65
2022/10/07 08:26:28;;;;;;;10.70;3.15;;;;;;;;;;5061120;28;20049;-66
2022/10/07 08:28:56;;;;;;;10.35;2.53;;;;;;;;;;5060824;28;20669;-66
2022/10/07 08:31:26;;;;;;;11.85;2.65;;;;;;;;;;5066656;28;20044;-66
2022/10/07 08:33:53;;;;;;;10.90;2.28;;;;;;;;;;5064445;28;20049;-67
2022/10/07 08:36:22;;;;;;;12.70;2.30;;;;;;;;;;5058746;28;20064;-66
2022/10/07 08:38:48;;;;;;;15.43;2.67;;;;;;;;;;5060284;28;20522;-67
2022/10/07 08:41:33;;;;;;;19.88;3.08;;;;;;;;;;5063306;28;20054;-69
2022/10/07 08:44:18;;;;;;;8.20;3.05;;;;;;;;;;5068466;28;20079;-66
2022/10/07 08:46:50;;;;;;;10.38;2.58;;;;;;;;;;5061772;28;20119;-64
2022/10/07 08:49:17;;;;;;;16.90;2.55;;;;;;;;;;5064429;28;20056;-66
2022/10/07 08:51:45;;;;;;;13.20;2.78;;;;;;;;;;5064308;28;20592;-68
2022/10/07 08:54:13;;;;;;;12.35;3.25;;;;;;;;;;5061694;28;20060;-68
2022/10/07 08:56:41;;;;;;;9.98;2.10;;;;;;;;;;5062919;28;20068;-69
2022/10/07 08:59:08;;;;;;;15.73;2.58;;;;;;;;;;5061816;28;20048;-67
2022/10/07 09:01:37;;;;;;;13.98;2.63;;;;;;;;;;5064840;28;20281;-67
2022/10/07 09:04:13;;;;;;;13.73;3.13;;;;;;;;;;5064290;28;20041;-66
2022/10/07 09:06:41;;;;;;;12.80;2.15;;;;;;;;;;5061098;28;20049;-68
2022/10/07 09:09:28;;;;;;;8.23;2.35;;;;;;;;;;5062996;28;20777;-68
2022/10/07 09:11:56;;;;;;;12.73;2.92;;;;;;;;;;5056077;28;20088;-68
2022/10/07 09:14:25;;;;;;;9.63;2.97;;;;;;;;;;5063077;28;20049;-68
2022/10/07 09:16:53;;;;;;;12.73;2.38;;;;;;;;;;5062537;28;20861;-66
2022/10/07 09:19:31;;;;;;;15.18;3.03;;;;;;;;;;5061686;28;20069;-68
2022/10/07 09:22:04;;;;;;;14.85;3.13;;;;;;;;;;5062123;28;20055;-67
2022/10/07 09:24:30;;;;;;;15.00;3.88;;;;;;;;;;5061841;28;20049;-67
2022/10/07 09:26:58;;;;;;;13.15;2.63;;;;;;;;;;5063458;28;20557;-67
2022/10/07 09:29:28;;;;;;;10.13;2.15;;;;;;;;;;5061461;28;20061;-66
2022/10/07 09:31:54;;;;;;;11.93;2.50;;;;;;;;;;5064492;28;20061;-66
2022/10/07 09:34:23;;;;;;;10.23;2.47;;;;;;;;;;5061187;28;20056;-67
2022/10/07 09:37:07;;;;;;;10.02;3.22;;;;;;;;;;5058636;28;20053;-66
2022/10/07 09:39:34;;;;;;;15.80;3.90;;;;;;;;;;5061857;28;20115;-68
2022/10/07 09:42:02;;;;;;;17.27;2.90;;;;;;;;;;5063324;28;20053;-66
2022/10/07 09:44:28;;;;;;;12.63;2.60;;;;;;;;;;5063429;28;20083;-66
2022/10/07 09:47:00;;;;;;;11.05;2.60;;;;;;;;;;5063781;28;20083;-66
2022/10/07 09:49:27;;;;;;;10.25;2.88;;;;;;;;;;5062159;28;20100;-65
2022/10/07 09:51:57;;;;;;;10.43;1.77;;;;;;;;;;5061718;28;20045;-66
2022/10/07 09:54:24;;;;;;;12.05;2.60;;;;;;;;;;5055220;28;20465;-67
2022/10/07 09:56:54;;;;;;;16.75;2.95;;;;;;;;;;5052256;28;20639;-67
2022/10/07 09:59:30;;;;;;;16.30;3.53;;;;;;;;;;5061529;28;20049;-66
2022/10/07 10:02:01;;;;;;;12.63;2.70;;;;;;;;;;5064759;28;20049;-67
2022/10/07 10:04:30;;;;;;;12.07;3.28;;;;;;;;;;5082246;28;20045;-67
2022/10/07 10:06:59;;;;;;;12.18;2.38;;;;;;;;;;5059462;28;20064;-67
2022/10/07 10:09:26;;;;;;;12.85;2.97;;;;;;;;;;5061201;28;20541;-66
2022/10/07 10:12:01;;;;;;;11.18;2.33;;;;;;;;;;5043396;28;20070;-66
2022/10/07 10:14:35;;;;;;;12.17;2.50;;;;;;;;;;5061534;28;20053;-67
2022/10/07 10:17:02;;;;;;;16.33;3.00;;;;;;;;;;5063326;28;20690;-66
2022/10/07 10:19:28;;;;;;;8.10;1.95;;;;;;;;;;5061572;28;20045;-66
2022/10/07 10:22:02;;;;;;;9.38;2.35;;;;;;;;;;5061488;28;20828;-66
2022/10/07 10:27:21;;;;;;;10.55;2.55;;;;;;;;;;5053702;28;20056;-67
2022/10/07 10:30:03;;;;;;;7.82;2.22;;;;;;;;;;5062875;28;20053;-66
2022/10/07 10:32:48;;;;;;;9.10;1.90;;;;;;;;;;5063171;28;20403;-66
2022/10/07 10:35:17;;;;;;;10.52;2.78;;;;;;;;;;5059030;28;20056;-67
2022/10/07 10:37:57;;;;;;;12.43;2.65;;;;;;;;;;5058432;28;20518;-66
2022/10/07 10:40:35;;;;;;;12.52;2.08;;;;;;;;;;5061534;28;20056;-66
2022/10/07 10:43:01;;;;;;;11.20;3.42;;;;;;;;;;5059457;28;20507;-65
2022/10/07 10:45:47;;;;;;;16.27;2.75;;;;;;;;;;5052088;28;20054;-66
2022/10/07 10:48:23;;;;;;;7.47;2.13;;;;;;;;;;5054900;28;20060;-67
2022/10/07 10:50:56;;;;;;;9.68;2.67;;;;;;;;;;5054710;28;20520;-66
2022/10/07 10:53:23;;;;;;;13.65;2.65;;;;;;;;;;5055784;28;21431;-66
2022/10/07 10:55:55;;;;;;;10.68;2.40;;;;;;;;;;5059642;28;20052;-67
2022/10/07 10:58:28;;;;;;;15.32;2.60;;;;;;;;;;5054463;28;20050;-66
2022/10/07 11:01:07;;;;;;;8.95;2.45;;;;;;;;;;5062444;28;20057;-66
2022/10/07 11:03:52;;;;;;;6.60;2.15;;;;;;;;;;5063031;28;20875;-65
2022/10/07 11:06:18;;;;;;;6.03;2.10;;;;;;;;;;5041449;28;20910;-66
2022/10/07 11:08:46;;;;;;;11.75;2.35;;;;;;;;;;5057579;28;20048;-66
2022/10/07 11:11:17;;;;;;;10.18;2.90;;;;;;;;;;5060177;28;20961;-66
2022/10/07 11:13:45;;;;;;;9.20;2.40;;;;;;;;;;5051298;28;20056;-66
2022/10/07 11:16:16;;;;;;;13.80;2.75;;;;;;;;;;5060380;28;20049;-67
2022/10/07 11:18:46;;;;;;;11.55;2.25;;;;;;;;;;5062155;28;20125;-66
2022/10/07 11:21:19;;;;;;;12.52;2.47;;;;;;;;;;5061737;28;20049;-66
2022/10/07 11:23:50;;;;;;;9.70;2.88;;;;;;;;;;5060353;28;20170;-64
2022/10/07 11:26:23;;;;;;;6.20;1.77;;;;;;;;;;5061874;28;20494;-66
2022/10/07 11:28:50;;;;;;;5.68;2.15;;;;;;;;;;5060838;28;20052;-65
2022/10/07 11:31:22;;;;;;;11.75;2.22;;;;;;;;;;5059814;28;20411;-66
2022/10/07 11:34:07;;;;;;;7.55;1.98;;;;;;;;;;5055006;28;20263;-66
2022/10/07 11:36:43;;;;;;;11.90;2.23;;;;;;;;;;5041890;28;20057;-66
2022/10/07 11:39:10;;;;;;;14.95;3.33;;;;;;;;;;5041933;28;20049;-67
2022/10/07 11:41:45;;;;;;;9.98;2.17;;;;;;;;;;5053532;28;20049;-65
2022/10/07 11:44:19;;;;;;;12.70;2.17;;;;;;;;;;5060250;28;20057;-66
2022/10/07 11:46:46;;;;;;;8.48;1.77;;;;;;;;;;5060245;28;20088;-66
2022/10/07 11:49:35;;;;;;;9.63;1.80;;;;;;;;;;5061272;28;20080;-67
2022/10/07 11:52:09;;;;;;;12.10;2.33;;;;;;;;;;5061367;28;20052;-67
2022/10/07 11:54:42;;;;;;;13.47;2.03;;;;;;;;;;5048586;28;20115;-67
2022/10/07 11:57:17;;;;;;;10.10;2.03;;;;;;;;;;5061110;28;20287;-67
2022/10/07 11:59:44;;;;;;;;;;;;;;;;;;5060443;28;20049;-64
2022/10/07 12:02:29;;;;;;;11.07;2.03;;;;;;;;;;5058646;28;47193;-66
2022/10/07 12:04:59;;;;;;;8.73;3.00;;;;;;;;;;5052327;28;20045;-66
2022/10/07 12:07:31;;;;;;;7.47;1.90;;;;;;;;;;5059225;28;20049;-67
2022/10/07 12:09:58;;;;;;;9.32;1.92;;;;;;;;;;5061329;28;20045;-67
2022/10/07 12:12:24;;;;;;;6.03;1.67;;;;;;;;;;5060128;28;20046;-67
2022/10/07 12:14:58;;;;;;;10.52;1.80;;;;;;;;;;5056703;28;20915;-66
2022/10/07 12:17:27;;;;;;;6.00;1.55;;;;;;;;;;5045912;28;20879;-65
2022/10/07 12:20:12;;;;;;;12.93;4.45;;;;;;;;;;5068805;28;20048;-67
2022/10/07 12:22:39;;;;;;;8.57;1.57;;;;;;;;;;5061991;28;20045;-67
2022/10/07 12:25:28;;;;;;;7.20;1.50;;;;;;;;;;5055311;28;20053;-65
2022/10/07 12:27:55;;;;;;;7.80;2.05;;;;;;;;;;5062823;28;20081;-67
2022/10/07 12:30:38;;;;;;;6.90;1.50;;;;;;;;;;5057840;28;20470;-68
2022/10/07 12:33:14;;;;;;;6.03;1.40;;;;;;;;;;5058832;28;20053;-66
2022/10/07 12:35:42;;;;;;;9.15;1.95;;;;;;;;;;5059535;28;20891;-65
2022/10/07 12:38:12;;;;;;;7.00;1.58;;;;;;;;;;5062763;28;20075;-67
2022/10/07 12:40:40;;;;;;;9.43;1.58;;;;;;;;;;5062633;28;20053;-67
2022/10/07 12:43:13;;;;;;;6.68;1.67;;;;;;;;;;5063085;28;20051;-67
2022/10/07 12:45:42;;;;;;;6.50;1.85;;;;;;;;;;5064162;28;20057;-67
2022/10/07 12:48:13;;;;;;;8.55;2.22;;;;;;;;;;5061459;28;20147;-66
2022/10/07 12:50:39;;;;;;;5.72;1.50;;;;;;;;;;5063580;28;20517;-64
2022/10/07 12:53:10;;;;;;;8.48;1.85;;;;;;;;;;5063868;28;20506;-63
2022/10/07 12:55:39;;;;;;;7.53;1.90;;;;;;;;;;5064655;28;20060;-65
2022/10/07 13:01:15;;;;;;;8.82;1.80;;;;;;;;;;5056393;28;20049;-68
2022/10/07 13:03:54;;;;;;;9.38;2.08;;;;;;;;;;5064615;28;20057;-68
2022/10/07 13:06:21;;;;;;;8.07;1.92;;;;;;;;;;5064062;28;20064;-66
2022/10/07 13:08:53;;;;;;;7.28;2.03;;;;;;;;;;5059870;28;20602;-66
2022/10/07 13:11:29;;;;;;;7.45;1.88;;;;;;;;;;5063597;28;20041;-67
2022/10/07 13:14:14;;;;;;;6.30;1.98;;;;;;;;;;5059448;28;20053;-66
2022/10/07 13:16:40;;;;;;;7.70;1.85;;;;;;;;;;5062444;28;20059;-67
2022/10/07 13:19:33;;;;;;;9.90;2.55;;;;;;;;;;5062347;28;20083;-66
2022/10/07 13:22:02;;;;;;;7.60;1.85;;;;;;;;;;5038257;28;20096;-65
2022/10/07 13:24:29;;;;;;;11.32;1.98;;;;;;;;;;5061752;28;20064;-66
2022/10/07 13:26:55;;;;;;;6.70;1.70;;;;;;;;;;5055018;28;20064;-67
2022/10/07 13:29:27;;;;;;;8.25;2.13;;;;;;;;;;5060910;28;20057;-67
2022/10/07 13:32:03;;;;;;;16.88;2.50;;;;;;;;;;5063454;28;20509;-67
2022/10/07 13:34:30;;;;;;;6.13;2.00;;;;;;;;;;5060177;28;20143;-67
2022/10/07 13:36:56;;;;;;;8.80;2.20;;;;;;;;;;5060632;28;20469;-67
2022/10/07 13:39:23;;;;;;;7.97;1.95;;;;;;;;;;5062278;28;20052;-65
2022/10/07 13:41:53;;;;;;;8.20;2.28;;;;;;;;;;5062256;28;20565;-66
2022/10/07 13:44:20;;;;;;;6.68;1.38;;;;;;;;;;5062296;28;20510;-66
2022/10/07 13:47:00;;;;;;;11.65;1.85;;;;;;;;;;5060110;28;20049;-65
2022/10/07 13:49:35;;;;;;;7.63;2.08;;;;;;;;;;5053302;28;20545;-67
2022/10/07 13:52:03;;;;;;;9.48;1.80;;;;;;;;;;5061929;28;20996;-65
2022/10/07 13:54:31;;;;;;;7.47;1.75;;;;;;;;;;5062175;28;20045;-65
2022/10/07 13:56:58;;;;;;;5.68;2.05;;;;;;;;;;5059718;28;20068;-66
2022/10/07 13:59:26;;;;;;;10.40;3.15;;;;;;;;;;5069679;28;20049;-66
2022/10/07 14:01:54;;;;;;;8.05;1.83;;;;;;;;;;5062759;28;20045;-65
2022/10/07 14:04:22;;;;;;;4.18;1.77;;;;;;;;;;5063323;28;20506;-66
2022/10/07 14:06:57;;;;;;;7.88;1.63;;;;;;;;;;5062548;28;20050;-65
2022/10/07 14:09:30;;;;;;;9.73;2.03;;;;;;;;;;5065509;28;20519;-67
2022/10/07 14:12:14;;;;;;;6.97;1.60;;;;;;;;;;5059232;28;20048;-64
2022/10/07 14:14:45;;;;;;;5.78;1.77;;;;;;;;;;5057042;28;20060;-66
2022/10/07 14:17:18;;;;;;;4.43;1.70;;;;;;;;;;5056776;28;20665;-65
2022/10/07 14:19:49;;;;;;;15.52;2.42;;;;;;;;;;5061036;28;20060;-64
2022/10/07 14:22:17;;;;;;;8.23;2.40;;;;;;;;;;5053352;28;20529;-64
2022/10/07 14:24:54;;;;;;;5.82;1.40;;;;;;;;;;5061479;28;20110;-66
2022/10/07 14:27:53;;;;;;;12.27;2.53;;;;;;;;;;5061366;28;20059;-65
2022/10/07 14:30:28;;;;;;;9.07;1.90;;;;;;;;;;4979137;28;20058;-68
2022/10/07 14:36:06;;;;;;;7.32;1.70;;;;;;;;;;4978666;28;20055;-66
2022/10/07 14:38:33;;;;;;;11.80;2.33;;;;;;;;;;4979400;28;20063;-66
2022/10/07 14:40:59;;;;;;;4.18;1.45;;;;;;;;;;4976313;28;20050;-66
2022/10/07 14:43:27;;;;;;;6.55;2.53;;;;;;;;;;4979576;28;20054;-66
2022/10/07 14:45:54;;;;;;;10.23;1.80;;;;;;;;;;4979668;28;20433;-64
2022/10/07 14:48:20;;;;;;;10.15;2.00;;;;;;;;;;4981310;28;20057;-65
2022/10/07 14:50:47;;;;;;;8.95;2.67;;;;;;;;;;4957074;28;20539;-65
2022/10/07 14:53:14;;;;;;;4.40;1.40;;;;;;;;;;4975587;28;20061;-67
2022/10/07 14:55:41;;;;;;;7.18;1.60;;;;;;;;;;4976972;28;20059;-68
2022/10/07 14:58:09;;;;;;;6.88;1.65;;;;;;;;;;4977949;28;20584;-66
2022/10/07 15:00:35;;;;;;;5.50;1.77;;;;;;;;;;4966773;28;20055;-65
2022/10/07 15:03:05;;;;;;;6.32;1.70;;;;;;;;;;4976126;28;20507;-66
2022/10/07 15:05:32;;;;;;;13.02;2.58;;;;;;;;;;4975194;28;20054;-66
2022/10/07 15:07:59;;;;;;;9.23;2.63;;;;;;;;;;5049150;28;20061;-67